sensor_id;sensor_type;location;lat;lon;timestamp;P1;P2;P0
74440;PMS7003;62870;54.692;25.284;2024-02-26T00:00:08;8.2;7.8;6.2
74440;PMS7003;62870;54.692;25.284;2024-02-26T00:04:30;8.2;7.8;6.2
74440;PMS7003;62870;54.692;25.284;2024-02-26T00:09:26;9.6;8.4;6.4
74440;PMS7003;62870;54.692;25.284;2024-02-26T00:15:08;9;8.6;6.8
74440;PMS7003;62870;54.692;25.284;2024-02-26T00:20:06;8.8;8.4;6.6
74440;PMS7003;62870;54.692;25.284;2024-02-26T00:24:39;8.8;8.4;6.6
74440;PMS7003;62870;54.692;25.284;2024-02-26T00:30:08;9.4;8.8;7.2
74440;PMS7003;62870;54.692;25.284;2024-02-26T00:34:24;9.4;8.8;7.2
74440;PMS7003;62870;54.692;25.284;2024-02-26T00:39:16;9.2;8.6;6.8
74440;PMS7003;62870;54.692;25.284;2024-02-26T00:44:16;10.3;8;6.8
74440;PMS7003;62870;54.692;25.284;2024-02-26T00:49:16;10;9.2;6.6
74440;PMS7003;62870;54.692;25.284;2024-02-26T00:54:16;9;7.8;6.6
74440;PMS7003;62870;54.692;25.284;2024-02-26T00:59:38;10.6;9.6;7
74440;PMS7003;62870;54.692;25.284;2024-02-26T01:04:48;10.6;9.8;7.4
74440;PMS7003;62870;54.692;25.284;2024-02-26T01:10:06;10.6;9.4;7.4
74440;PMS7003;62870;54.692;25.284;2024-02-26T01:14:48;10.6;9.4;7.4
74440;PMS7003;62870;54.692;25.284;2024-02-26T01:19:48;10;9.4;7.6
74440;PMS7003;62870;54.692;25.284;2024-02-26T01:25:08;9.6;9.2;7.4
74440;PMS7003;62870;54.692;25.284;2024-02-26T01:29:58;9.6;9.2;7.4
74440;PMS7003;62870;54.692;25.284;2024-02-26T01:35:00;9.2;8;6.2
74440;PMS7003;62870;54.692;25.284;2024-02-26T01:39:58;11;10.2;7.6
74440;PMS7003;62870;54.692;25.284;2024-02-26T01:44:52;11.5;10.3;7.8
74440;PMS7003;62870;54.692;25.284;2024-02-26T01:49:34;11.6;10.2;7.6
74440;PMS7003;62870;54.692;25.284;2024-02-26T01:55:07;11;9.8;8
74440;PMS7003;62870;54.692;25.284;2024-02-26T01:59:44;11;9.8;8
74440;PMS7003;62870;54.692;25.284;2024-02-26T02:04:52;9.4;9.4;6.6
74440;PMS7003;62870;54.692;25.284;2024-02-26T02:10:05;9.6;8.8;7.6
74440;PMS7003;62870;54.692;25.284;2024-02-26T02:14:16;9.6;8.8;7.6
74440;PMS7003;62870;54.692;25.284;2024-02-26T02:19:16;10;8.8;7
74440;PMS7003;62870;54.692;25.284;2024-02-26T02:24:58;9.6;8.8;7.4
74440;PMS7003;62870;54.692;25.284;2024-02-26T02:29:32;8.6;7.8;6.8
74440;PMS7003;62870;54.692;25.284;2024-02-26T02:34:24;7.8;7.6;6.4
74440;PMS7003;62870;54.692;25.284;2024-02-26T02:39:30;9;8.2;6.2
74440;PMS7003;62870;54.692;25.284;2024-02-26T02:45:08;8.4;7.2;5.6
74440;PMS7003;62870;54.692;25.284;2024-02-26T02:50:06;8;8;6.6
74440;PMS7003;62870;54.692;25.284;2024-02-26T02:54:16;8;8;6.6
74440;PMS7003;62870;54.692;25.284;2024-02-26T03:00:08;8;7.4;6
74440;PMS7003;62870;54.692;25.284;2024-02-26T03:04:58;8;7.4;6
74440;PMS7003;62870;54.692;25.284;2024-02-26T03:10:08;6.8;6.6;5.8
74440;PMS7003;62870;54.692;25.284;2024-02-26T03:14:42;6.8;6.6;5.8
74440;PMS7003;62870;54.692;25.284;2024-02-26T03:19:52;7.4;6.6;5.2
74440;PMS7003;62870;54.692;25.284;2024-02-26T03:24:16;7;6.6;5.6
74440;PMS7003;62870;54.692;25.284;2024-02-26T03:30:09;7.2;6.2;5.2
74440;PMS7003;62870;54.692;25.284;2024-02-26T03:34:16;7.2;6.2;5.2
74440;PMS7003;62870;54.692;25.284;2024-02-26T03:39:52;7;6.6;5.6
74440;PMS7003;62870;54.692;25.284;2024-02-26T03:44:32;7.8;6.5;5.3
74440;PMS7003;62870;54.692;25.284;2024-02-26T03:50:08;6.8;6.6;5
74440;PMS7003;62870;54.692;25.284;2024-02-26T03:54:24;6.8;6.6;5
74440;PMS7003;62870;54.692;25.284;2024-02-26T03:59:58;6;5.6;4.8
74440;PMS7003;62870;54.692;25.284;2024-02-26T04:04:33;5.8;5.4;5
74440;PMS7003;62870;54.692;25.284;2024-02-26T04:09:16;5.4;5.2;4.4
74440;PMS7003;62870;54.692;25.284;2024-02-26T04:14:42;5.8;5.6;4.6
74440;PMS7003;62870;54.692;25.284;2024-02-26T04:20:06;7.4;6.8;5.4
74440;PMS7003;62870;54.692;25.284;2024-02-26T04:25:06;6;5.6;4.8
74440;PMS7003;62870;54.692;25.284;2024-02-26T04:29:48;6;5.6;4.8
74440;PMS7003;62870;54.692;25.284;2024-02-26T04:34:58;6.2;6.2;5
74440;PMS7003;62870;54.692;25.284;2024-02-26T04:39:38;6.8;6.6;5.2
74440;PMS7003;62870;54.692;25.284;2024-02-26T04:44:52;6.8;6;5.8
74440;PMS7003;62870;54.692;25.284;2024-02-26T04:49:42;7.2;6.4;5.2
74440;PMS7003;62870;54.692;25.284;2024-02-26T04:54:48;6.2;6;4.6
74440;PMS7003;62870;54.692;25.284;2024-02-26T04:59:24;6.6;5.8;4.6
74440;PMS7003;62870;54.692;25.284;2024-02-26T05:04:56;6;6;5.2
74440;PMS7003;62870;54.692;25.284;2024-02-26T05:09:32;7.4;7.2;5.8
74440;PMS7003;62870;54.692;25.284;2024-02-26T05:14:34;6.4;6;4.8
74440;PMS7003;62870;54.692;25.284;2024-02-26T05:19:32;6.4;6.2;5.2
74440;PMS7003;62870;54.692;25.284;2024-02-26T05:24:46;6.2;6.2;5
74440;PMS7003;62870;54.692;25.284;2024-02-26T05:29:58;5.8;5.6;4.8
74440;PMS7003;62870;54.692;25.284;2024-02-26T05:34:16;6.2;5.8;5
74440;PMS7003;62870;54.692;25.284;2024-02-26T05:39:24;6.8;6.4;5.4
74440;PMS7003;62870;54.692;25.284;2024-02-26T05:44:28;5.8;5.5;4.3
74440;PMS7003;62870;54.692;25.284;2024-02-26T05:49:24;7.2;6.2;5.2
74440;PMS7003;62870;54.692;25.284;2024-02-26T05:54:32;6;5.8;4.4
74440;PMS7003;62870;54.692;25.284;2024-02-26T05:59:26;6.8;6.4;5.4
74440;PMS7003;62870;54.692;25.284;2024-02-26T06:04:36;6.4;6.2;5.2
74440;PMS7003;62870;54.692;25.284;2024-02-26T06:10:06;6;5.6;4.8
74440;PMS7003;62870;54.692;25.284;2024-02-26T06:14:46;6;5.6;4.8
74440;PMS7003;62870;54.692;25.284;2024-02-26T06:20:06;6.8;6.6;5.8
74440;PMS7003;62870;54.692;25.284;2024-02-26T06:24:56;6.8;6.6;5.8
74440;PMS7003;62870;54.692;25.284;2024-02-26T06:29:26;7.6;7.2;5.8
74440;PMS7003;62870;54.692;25.284;2024-02-26T06:35:06;6.4;5.8;4.8
74440;PMS7003;62870;54.692;25.284;2024-02-26T06:39:52;6.4;5.8;4.8
74440;PMS7003;62870;54.692;25.284;2024-02-26T06:44:32;5.8;5.5;4.5
74440;PMS7003;62870;54.692;25.284;2024-02-26T06:50:06;6.4;6.2;4.8
74440;PMS7003;62870;54.692;25.284;2024-02-26T06:54:32;6.4;6.2;4.8
74440;PMS7003;62870;54.692;25.284;2024-02-26T07:00:04;6.2;6.2;5.2
74440;PMS7003;62870;54.692;25.284;2024-02-26T07:05:04;7.4;6.2;5.4
74440;PMS7003;62870;54.692;25.284;2024-02-26T07:09:16;7.4;6.2;5.4
74440;PMS7003;62870;54.692;25.284;2024-02-26T07:14:16;6;5.4;4.4
74440;PMS7003;62870;54.692;25.284;2024-02-26T07:19:16;5.8;5.2;4
74440;PMS7003;62870;54.692;25.284;2024-02-26T07:24:24;6.4;6.4;5.2
74440;PMS7003;62870;54.692;25.284;2024-02-26T07:29:24;6.6;5.8;4.4
74440;PMS7003;62870;54.692;25.284;2024-02-26T07:35:04;5.6;5.6;5
74440;PMS7003;62870;54.692;25.284;2024-02-26T07:39:36;5.6;5.6;5
74440;PMS7003;62870;54.692;25.284;2024-02-26T07:45:04;7.8;6.8;5.5
74440;PMS7003;62870;54.692;25.284;2024-02-26T07:49:44;7.8;6.8;5.5
74440;PMS7003;62870;54.692;25.284;2024-02-26T07:55:05;7.4;6.6;5.2
74440;PMS7003;62870;54.692;25.284;2024-02-26T07:59:33;7.4;6.6;5.2
74440;PMS7003;62870;54.692;25.284;2024-02-26T08:04:54;7.4;6.6;5.6
74440;PMS7003;62870;54.692;25.284;2024-02-26T08:10:06;7.2;6.2;5
74440;PMS7003;62870;54.692;25.284;2024-02-26T08:15:07;5.8;5.6;4.8
74440;PMS7003;62870;54.692;25.284;2024-02-26T08:19:44;5.8;5.6;4.8
74440;PMS7003;62870;54.692;25.284;2024-02-26T08:25:06;8;7.2;6
74440;PMS7003;62870;54.692;25.284;2024-02-26T08:30:07;7.8;6.8;5.6
74440;PMS7003;62870;54.692;25.284;2024-02-26T08:34:48;7.8;6.8;5.6
74440;PMS7003;62870;54.692;25.284;2024-02-26T08:40:08;9.2;8.6;7.2
74440;PMS7003;62870;54.692;25.284;2024-02-26T08:44:38;9.2;8.6;7.2
74440;PMS7003;62870;54.692;25.284;2024-02-26T08:50:06;8.4;7.8;6.6
74440;PMS7003;62870;54.692;25.284;2024-02-26T08:54:16;8.4;7.8;6.6
74440;PMS7003;62870;54.692;25.284;2024-02-26T09:00:02;8.4;7.8;6.4
74440;PMS7003;62870;54.692;25.284;2024-02-26T09:04:16;8;7.8;6.4
74440;PMS7003;62870;54.692;25.284;2024-02-26T09:09:16;9.8;8.8;6.6
74440;PMS7003;62870;54.692;25.284;2024-02-26T09:14:16;9;8.4;6.4
74440;PMS7003;62870;54.692;25.284;2024-02-26T09:20:06;9.2;8.8;7
74440;PMS7003;62870;54.692;25.284;2024-02-26T09:24:46;9.2;8.8;7
74440;PMS7003;62870;54.692;25.284;2024-02-26T09:29:30;9.6;8.6;7
74440;PMS7003;62870;54.692;25.284;2024-02-26T09:35:06;10.2;9.8;8.2
74440;PMS7003;62870;54.692;25.284;2024-02-26T09:39:40;10.2;9.8;8.2
74440;PMS7003;62870;54.692;25.284;2024-02-26T09:44:53;9.6;9.4;7.8
74440;PMS7003;62870;54.692;25.284;2024-02-26T09:49:24;9;9;7
74440;PMS7003;62870;54.692;25.284;2024-02-26T09:54:53;9.6;9;7.2
74440;PMS7003;62870;54.692;25.284;2024-02-26T09:59:37;7.8;7.6;6.4
74440;PMS7003;62870;54.692;25.284;2024-02-26T10:05:09;8.8;8.2;6.2
74440;PMS7003;62870;54.692;25.284;2024-02-26T10:09:16;8.8;8.2;6.2
74440;PMS7003;62870;54.692;25.284;2024-02-26T10:14:52;8.6;8;6.6
74440;PMS7003;62870;54.692;25.284;2024-02-26T10:19:25;8.6;8;6.6
74440;PMS7003;62870;54.692;25.284;2024-02-26T10:25:06;8.8;8;6.6
74440;PMS7003;62870;54.692;25.284;2024-02-26T10:29:25;8.8;8;6.6
74440;PMS7003;62870;54.692;25.284;2024-02-26T10:34:16;9;7.8;6.4
74440;PMS7003;62870;54.692;25.284;2024-02-26T10:39:16;8.6;7.8;6
74440;PMS7003;62870;54.692;25.284;2024-02-26T10:44:44;7.2;7;5.8
74440;PMS7003;62870;54.692;25.284;2024-02-26T10:49:16;9.3;8;6
74440;PMS7003;62870;54.692;25.284;2024-02-26T10:55:08;9.2;8.6;6.4
74440;PMS7003;62870;54.692;25.284;2024-02-26T11:00:10;8.6;8.6;6.8
74440;PMS7003;62870;54.692;25.284;2024-02-26T11:04:38;8.6;8.6;6.8
74440;PMS7003;62870;54.692;25.284;2024-02-26T11:10:09;7.6;6.4;5.2
74440;PMS7003;62870;54.692;25.284;2024-02-26T11:14:16;7.6;6.4;5.2
74440;PMS7003;62870;54.692;25.284;2024-02-26T11:19:53;7.6;7;5.8
74440;PMS7003;62870;54.692;25.284;2024-02-26T11:24:16;6.8;6.8;5.4
74440;PMS7003;62870;54.692;25.284;2024-02-26T11:29:57;7.6;6.6;4.8
74440;PMS7003;62870;54.692;25.284;2024-02-26T11:34:42;6.8;6.6;5.6
74440;PMS7003;62870;54.692;25.284;2024-02-26T11:39:39;6;6;5.2
74440;PMS7003;62870;54.692;25.284;2024-02-26T11:44:32;7;6.8;5.4
74440;PMS7003;62870;54.692;25.284;2024-02-26T11:50:40;7.2;7;5.2
74440;PMS7003;62870;54.692;25.284;2024-02-26T11:54:29;7.2;7;5.2
74440;PMS7003;62870;54.692;25.284;2024-02-26T12:00:12;7.2;6.6;5.2
74440;PMS7003;62870;54.692;25.284;2024-02-26T12:04:52;7.2;6.6;5.2
74440;PMS7003;62870;54.692;25.284;2024-02-26T12:09:33;7.8;7.6;6
74440;PMS7003;62870;54.692;25.284;2024-02-26T12:14:25;7.4;7.4;6
74440;PMS7003;62870;54.692;25.284;2024-02-26T12:19:52;9.2;8.4;6.4
74440;PMS7003;62870;54.692;25.284;2024-02-26T12:24:24;7.8;7.8;6.2
74440;PMS7003;62870;54.692;25.284;2024-02-26T12:30:09;7.2;6.6;5.2
74440;PMS7003;62870;54.692;25.284;2024-02-26T12:35:08;8.6;8;6
74440;PMS7003;62870;54.692;25.284;2024-02-26T12:39:16;8.6;8;6
74440;PMS7003;62870;54.692;25.284;2024-02-26T12:44:58;9;7.8;6.2
74440;PMS7003;62870;54.692;25.284;2024-02-26T12:49:38;7.8;7.2;5.4
74440;PMS7003;62870;54.692;25.284;2024-02-26T12:54:52;9;8;6.5
74440;PMS7003;62870;54.692;25.284;2024-02-26T12:59:34;8.2;7.2;5.8
74440;PMS7003;62870;54.692;25.284;2024-02-26T13:04:38;10;9.4;6.6
74440;PMS7003;62870;54.692;25.284;2024-02-26T13:09:16;10;9.2;7.2
74440;PMS7003;62870;54.692;25.284;2024-02-26T13:14:58;9.6;8.4;6.4
74440;PMS7003;62870;54.692;25.284;2024-02-26T13:19:24;8.8;8.4;6.8
74440;PMS7003;62870;54.692;25.284;2024-02-26T13:25:07;9.6;8.8;6.8
74440;PMS7003;62870;54.692;25.284;2024-02-26T13:29:32;9.6;8.8;6.8
74440;PMS7003;62870;54.692;25.284;2024-02-26T13:34:40;10;9.4;7.8
74440;PMS7003;62870;54.692;25.284;2024-02-26T13:40:09;10.4;9.4;7.4
74440;PMS7003;62870;54.692;25.284;2024-02-26T13:44:17;10.4;9.4;7.4
74440;PMS7003;62870;54.692;25.284;2024-02-26T13:49:18;10.6;10;7.6
74440;PMS7003;62870;54.692;25.284;2024-02-26T13:54:38;10.3;10.3;8
74440;PMS7003;62870;54.692;25.284;2024-02-26T13:59:17;10.2;9.4;8
74440;PMS7003;62870;54.692;25.284;2024-02-26T14:10:09;10.6;10.4;7.8
74440;PMS7003;62870;54.692;25.284;2024-02-26T14:14:24;10.6;10.4;7.8
74440;PMS7003;62870;54.692;25.284;2024-02-26T14:20:09;11.4;10.8;8.2
74440;PMS7003;62870;54.692;25.284;2024-02-26T14:24:48;11.4;10.8;8.2
74440;PMS7003;62870;54.692;25.284;2024-02-26T14:30:09;10;9.4;7.6
74440;PMS7003;62870;54.692;25.284;2024-02-26T14:34:16;10;9.4;7.6
74440;PMS7003;62870;54.692;25.284;2024-02-26T14:39:58;10.2;9.4;7.2
74440;PMS7003;62870;54.692;25.284;2024-02-26T14:45:08;9.8;9.8;8
74440;PMS7003;62870;54.692;25.284;2024-02-26T14:50:09;10;9.5;7.3
74440;PMS7003;62870;54.692;25.284;2024-02-26T14:54:53;10;9.5;7.3
74440;PMS7003;62870;54.692;25.284;2024-02-26T15:00:09;9.6;9.4;6.8
74440;PMS7003;62870;54.692;25.284;2024-02-26T15:05:09;9;8.2;6.4
74440;PMS7003;62870;54.692;25.284;2024-02-26T15:09:46;9;8.2;6.4
74440;PMS7003;62870;54.692;25.284;2024-02-26T15:15:00;8.4;7.6;6
74440;PMS7003;62870;54.692;25.284;2024-02-26T15:19:32;9.2;8.6;6.2
74440;PMS7003;62870;54.692;25.284;2024-02-26T15:24:24;9.4;8.2;6.2
74440;PMS7003;62870;54.692;25.284;2024-02-26T15:29:34;8.2;8;5.8
74440;PMS7003;62870;54.692;25.284;2024-02-26T15:34:23;8.8;8.4;6.4
74440;PMS7003;62870;54.692;25.284;2024-02-26T15:39:32;9.8;9;6.8
74440;PMS7003;62870;54.692;25.284;2024-02-26T15:44:30;9.4;8.6;6.8
74440;PMS7003;62870;54.692;25.284;2024-02-26T15:49:44;9.8;8;6.4
74440;PMS7003;62870;54.692;25.284;2024-02-26T15:55:07;9.6;8.6;6.6
74440;PMS7003;62870;54.692;25.284;2024-02-26T15:59:48;9.6;8.6;6.6
74440;PMS7003;62870;54.692;25.284;2024-02-26T16:04:38;10.4;9;6.4
74440;PMS7003;62870;54.692;25.284;2024-02-26T16:10:09;8.6;8;6.2
74440;PMS7003;62870;54.692;25.284;2024-02-26T16:15:09;8.8;8.6;6.8
74440;PMS7003;62870;54.692;25.284;2024-02-26T16:20:09;10.2;9.4;7.6
74440;PMS7003;62870;54.692;25.284;2024-02-26T16:24:16;10.2;9.4;7.6
74440;PMS7003;62870;54.692;25.284;2024-02-26T16:29:18;10;9.8;7.8
74440;PMS7003;62870;54.692;25.284;2024-02-26T16:34:36;9.4;9;6.8
74440;PMS7003;62870;54.692;25.284;2024-02-26T16:40:07;9.4;8.4;7
74440;PMS7003;62870;54.692;25.284;2024-02-26T16:44:24;9.4;8.4;7
74440;PMS7003;62870;54.692;25.284;2024-02-26T16:49:31;8.2;8;5.8
74440;PMS7003;62870;54.692;25.284;2024-02-26T16:54:17;8.6;8;6.4
74440;PMS7003;62870;54.692;25.284;2024-02-26T16:59:16;10.8;9.3;7
74440;PMS7003;62870;54.692;25.284;2024-02-26T17:04:17;9.8;8.8;6.6
74440;PMS7003;62870;54.692;25.284;2024-02-26T17:09:43;10.8;9.2;7
74440;PMS7003;62870;54.692;25.284;2024-02-26T17:14:17;10.6;9.4;7.4
74440;PMS7003;62870;54.692;25.284;2024-02-26T17:19:49;10.6;8.6;6.6
74440;PMS7003;62870;54.692;25.284;2024-02-26T17:24:35;9.4;9.2;7
74440;PMS7003;62870;54.692;25.284;2024-02-26T17:29:59;8.2;7.8;6.6
74440;PMS7003;62870;54.692;25.284;2024-02-26T17:34:19;9.4;8.6;7
74440;PMS7003;62870;54.692;25.284;2024-02-26T17:39:25;9.6;9.2;6.8
74440;PMS7003;62870;54.692;25.284;2024-02-26T17:45:09;9;8;6
74440;PMS7003;62870;54.692;25.284;2024-02-26T17:49:59;9;8;6
74440;PMS7003;62870;54.692;25.284;2024-02-26T17:54:59;9.4;8.2;6
74440;PMS7003;62870;54.692;25.284;2024-02-26T17:59:17;9;7.8;5.8
74440;PMS7003;62870;54.692;25.284;2024-02-26T18:04:20;9;8.2;6.2
74440;PMS7003;62870;54.692;25.284;2024-02-26T18:09:45;7.6;7;5.6
74440;PMS7003;62870;54.692;25.284;2024-02-26T18:15:09;9.4;8.8;6.4
74440;PMS7003;62870;54.692;25.284;2024-02-26T18:19:33;9.4;8.8;6.4
74440;PMS7003;62870;54.692;25.284;2024-02-26T18:24:31;9;8;6.4
74440;PMS7003;62870;54.692;25.284;2024-02-26T18:29:31;10.2;8.8;6.6
74440;PMS7003;62870;54.692;25.284;2024-02-26T18:35:09;7.8;7.6;6.2
74440;PMS7003;62870;54.692;25.284;2024-02-26T18:39:17;7.8;7.6;6.2
74440;PMS7003;62870;54.692;25.284;2024-02-26T18:45:09;9.6;8.6;6.4
74440;PMS7003;62870;54.692;25.284;2024-02-26T18:49:25;9.6;8.6;6.4
74440;PMS7003;62870;54.692;25.284;2024-02-26T18:55:09;8.3;7.8;6.5
74440;PMS7003;62870;54.692;25.284;2024-02-26T18:59:43;8.3;7.8;6.5
74440;PMS7003;62870;54.692;25.284;2024-02-26T19:05:09;9;8.2;6
74440;PMS7003;62870;54.692;25.284;2024-02-26T19:10:09;9;8.6;6.6
74440;PMS7003;62870;54.692;25.284;2024-02-26T19:14:39;9;8.6;6.6
74440;PMS7003;62870;54.692;25.284;2024-02-26T19:19:57;9.8;8.6;6.2
74440;PMS7003;62870;54.692;25.284;2024-02-26T19:24:17;8.4;7.6;5.6
74440;PMS7003;62870;54.692;25.284;2024-02-26T19:29:53;8;7.4;5.8
74440;PMS7003;62870;54.692;25.284;2024-02-26T19:34:59;9.8;9.2;6.8
74440;PMS7003;62870;54.692;25.284;2024-02-26T19:39:59;9.4;8.6;6.6
74440;PMS7003;62870;54.692;25.284;2024-02-26T19:44:25;9;8;6.6
74440;PMS7003;62870;54.692;25.284;2024-02-26T19:49:59;8.8;8;6
74440;PMS7003;62870;54.692;25.284;2024-02-26T19:54:17;8.8;8.2;6.4
74440;PMS7003;62870;54.692;25.284;2024-02-26T20:00:07;9.4;8.6;6
74440;PMS7003;62870;54.692;25.284;2024-02-26T20:04:33;9.4;8.6;6
74440;PMS7003;62870;54.692;25.284;2024-02-26T20:09:49;9;8.4;7
74440;PMS7003;62870;54.692;25.284;2024-02-26T20:15:09;9.6;8.4;6.2
74440;PMS7003;62870;54.692;25.284;2024-02-26T20:19:31;9.6;8.4;6.2
74440;PMS7003;62870;54.692;25.284;2024-02-26T20:24:33;8;8;6.2
74440;PMS7003;62870;54.692;25.284;2024-02-26T20:29:17;8.8;8;6.2
74440;PMS7003;62870;54.692;25.284;2024-02-26T20:34:43;10.6;9;6.2
74440;PMS7003;62870;54.692;25.284;2024-02-26T20:39:25;8.8;8.2;6.2
74440;PMS7003;62870;54.692;25.284;2024-02-26T20:45:09;8.8;8;6.4
74440;PMS7003;62870;54.692;25.284;2024-02-26T20:49:39;8.8;8;6.4
74440;PMS7003;62870;54.692;25.284;2024-02-26T20:54:55;9.8;9.2;7.2
74440;PMS7003;62870;54.692;25.284;2024-02-26T20:59:49;10;9;7
74440;PMS7003;62870;54.692;25.284;2024-02-26T21:05:09;9.4;8.8;7.4
74440;PMS7003;62870;54.692;25.284;2024-02-26T21:09:43;9.4;8.8;7.4
74440;PMS7003;62870;54.692;25.284;2024-02-26T21:14:59;9.8;8.2;6.4
74440;PMS7003;62870;54.692;25.284;2024-02-26T21:20:07;9.8;9.2;7
74440;PMS7003;62870;54.692;25.284;2024-02-26T21:25:09;12.2;10.2;8
74440;PMS7003;62870;54.692;25.284;2024-02-26T21:29:53;12.2;10.2;8
74440;PMS7003;62870;54.692;25.284;2024-02-26T21:35:09;11.4;10.4;8
74440;PMS7003;62870;54.692;25.284;2024-02-26T21:40:09;10.8;10.4;7
74440;PMS7003;62870;54.692;25.284;2024-02-26T21:44:47;10.8;10.4;7
74440;PMS7003;62870;54.692;25.284;2024-02-26T21:49:35;11.4;9.8;8
74440;PMS7003;62870;54.692;25.284;2024-02-26T21:54:47;10.6;10.4;8
74440;PMS7003;62870;54.692;25.284;2024-02-26T21:59:33;11.8;11.2;7.4
74440;PMS7003;62870;54.692;25.284;2024-02-26T22:04:17;12.5;11.3;7.8
74440;PMS7003;62870;54.692;25.284;2024-02-26T22:09:25;11.2;10.4;8
74440;PMS7003;62870;54.692;25.284;2024-02-26T22:14:33;11.2;10.4;8.2
74440;PMS7003;62870;54.692;25.284;2024-02-26T22:20:09;10.2;9.8;7.6
74440;PMS7003;62870;54.692;25.284;2024-02-26T22:24:39;10.2;9.8;7.6
74440;PMS7003;62870;54.692;25.284;2024-02-26T22:29:59;11.4;10;7.8
74440;PMS7003;62870;54.692;25.284;2024-02-26T22:34:49;9.8;9.8;7.6
74440;PMS7003;62870;54.692;25.284;2024-02-26T22:40:09;10.4;10;7.4
74440;PMS7003;62870;54.692;25.284;2024-02-26T22:44:37;10.4;10;7.4
74440;PMS7003;62870;54.692;25.284;2024-02-26T22:49:59;10.6;9.6;6.8
74440;PMS7003;62870;54.692;25.284;2024-02-26T22:55:09;10.2;9.6;7.6
74440;PMS7003;62870;54.692;25.284;2024-02-26T23:00:09;13;11.3;8.3
74440;PMS7003;62870;54.692;25.284;2024-02-26T23:04:38;13;11.3;8.3
74440;PMS7003;62870;54.692;25.284;2024-02-26T23:09:17;12.5;11.8;7.8
74440;PMS7003;62870;54.692;25.284;2024-02-26T23:14:59;10.8;10.2;7.8
74440;PMS7003;62870;54.692;25.284;2024-02-26T23:19:45;10.8;9.8;7.2
74440;PMS7003;62870;54.692;25.284;2024-02-26T23:24:29;9.6;9.2;7.4
74440;PMS7003;62870;54.692;25.284;2024-02-26T23:29:51;11.2;10.2;7.6
74440;PMS7003;62870;54.692;25.284;2024-02-26T23:35:07;11;9.6;7.4
74440;PMS7003;62870;54.692;25.284;2024-02-26T23:40:07;11;9.6;7.4
74440;PMS7003;62870;54.692;25.284;2024-02-26T23:44:29;11;9.6;7.4
74440;PMS7003;62870;54.692;25.284;2024-02-26T23:49:57;9.8;9.6;6.4
74440;PMS7003;62870;54.692;25.284;2024-02-26T23:54:23;9.4;8.8;6.8
74440;PMS7003;62870;54.692;25.284;2024-02-26T23:59:51;9.2;9;7.4
